createdAt,value
2019-04-20T00:00:11.598Z,8.1
2019-04-20T00:01:03.669Z,8
2019-04-20T00:02:18.962Z,7.9
2019-04-20T00:03:03.623Z,7.8
2019-04-20T00:04:03.457Z,7.8
2019-04-20T00:05:03.576Z,7.8
2019-04-20T00:06:03.661Z,7.8
2019-04-20T00:07:06.057Z,7.8
2019-04-20T00:08:23.045Z,7.8
2019-04-20T00:09:24.432Z,7.7
2019-04-20T00:10:19.961Z,7.6
2019-04-20T00:11:25.635Z,7.6
2019-04-20T00:12:33.351Z,7.5
2019-04-20T00:13:35.461Z,7.4
2019-04-20T00:14:22.309Z,7.4
2019-04-20T00:15:03.347Z,7.4
2019-04-20T00:16:04.326Z,7.4
2019-04-20T00:17:03.381Z,7.5
2019-04-20T00:18:10.151Z,7.4
2019-04-20T00:19:08.822Z,7.4
2019-04-20T00:20:22.249Z,7.4
2019-04-20T00:21:16.288Z,7.4
2019-04-20T00:22:13.892Z,7.4
2019-04-20T00:23:03.898Z,7.4
2019-04-20T00:24:23.292Z,7.4
2019-04-20T00:25:18.913Z,7.4
2019-04-20T00:26:40.998Z,7.4
2019-04-20T00:27:42.581Z,7.4
2019-04-20T00:28:55.715Z,7.5
2019-04-20T00:29:54.099Z,7.6
2019-04-20T00:31:05.343Z,7.6
2019-04-20T00:31:45.353Z,7.6
2019-04-20T00:32:46.309Z,7.6
2019-04-20T00:33:46.764Z,7.6
2019-04-20T00:34:28.192Z,7.7
2019-04-20T00:35:04.273Z,7.7
2019-04-20T00:36:03.469Z,7.7
2019-04-20T00:37:07.096Z,7.8
2019-04-20T00:38:03.552Z,7.8
2019-04-20T00:39:13.504Z,7.9
2019-04-20T00:40:03.801Z,8.1
2019-04-20T00:41:15.184Z,8.2
2019-04-20T00:42:14.460Z,8.2
2019-04-20T00:43:04.808Z,8.3
2019-04-20T00:44:23.083Z,8.3
2019-04-20T00:45:27.147Z,8.3
2019-04-20T00:46:29.110Z,8.3
2019-04-20T00:47:45.299Z,8.4
2019-04-20T00:48:33.581Z,8.4
2019-04-20T00:49:57.575Z,8.4
2019-04-20T00:50:59.137Z,8.4
2019-04-20T00:53:03.008Z,8.4
2019-04-20T00:53:36.150Z,8.4
2019-04-20T00:54:05.768Z,8.4
2019-04-20T00:55:04.316Z,8.4
2019-04-20T00:56:03.555Z,8.4
2019-04-20T00:58:28.719Z,8.5
2019-04-20T00:59:39.232Z,8.5
2019-04-20T01:00:59.704Z,8.4
2019-04-20T01:01:51.718Z,8.3
2019-04-20T01:02:47.212Z,8.3
2019-04-20T01:03:54.683Z,8.3
2019-04-20T01:05:03.828Z,8.3
2019-04-20T01:06:53.321Z,8.3
2019-04-20T01:07:40.721Z,8.3
2019-04-20T01:08:09.745Z,8.2
2019-04-20T01:09:03.607Z,8.2
2019-04-20T01:10:06.655Z,8.3
2019-04-20T01:11:04.390Z,8.3
2019-04-20T01:12:24.570Z,8.3
2019-04-20T01:13:18.641Z,8.3
2019-04-20T01:14:14.515Z,8.3
2019-04-20T01:15:22.841Z,8.3
2019-04-20T01:16:33.135Z,8.2
2019-04-20T01:17:13.490Z,8.2
2019-04-20T01:18:03.423Z,8.1
2019-04-20T01:19:03.121Z,8.1
2019-04-20T01:20:03.015Z,8.2
2019-04-20T01:21:19.796Z,8.2
2019-04-20T01:22:19.843Z,8.1
2019-04-20T01:23:17.782Z,8.1
2019-04-20T01:24:12.865Z,8.1
2019-04-20T01:25:28.845Z,8.1
2019-04-20T01:26:17.264Z,8.1
2019-04-20T01:27:31.987Z,8.1
2019-04-20T01:28:50.978Z,8.1
2019-04-20T01:29:32.216Z,8.1
2019-04-20T01:30:31.920Z,8
2019-04-20T01:31:36.074Z,7.9
2019-04-20T01:32:34.140Z,7.8
2019-04-20T01:33:42.259Z,7.8
2019-04-20T01:34:44.956Z,7.8
2019-04-20T01:35:53.012Z,7.6
2019-04-20T01:36:45.557Z,7.7
2019-04-20T01:37:42.413Z,7.7
2019-04-20T01:38:46.859Z,7.7
2019-04-20T01:39:35.218Z,7.9
2019-04-20T01:40:09.249Z,7.9
2019-04-20T01:41:03.542Z,7.9
2019-04-20T01:42:04.736Z,8
2019-04-20T01:43:03.917Z,7.9
2019-04-20T01:44:05.198Z,7.9
2019-04-20T01:45:22.316Z,8
2019-04-20T01:46:19.887Z,8
2019-04-20T01:47:10.238Z,7.9
2019-04-20T01:48:08.180Z,8
2019-04-20T01:49:20.951Z,8
2019-04-20T01:50:24.296Z,8.1
2019-04-20T01:51:28.506Z,8.1
2019-04-20T01:52:32.466Z,8.1
2019-04-20T01:53:50.181Z,8.1
2019-04-20T01:55:50.258Z,8.1
2019-04-20T01:56:43.309Z,8.1
2019-04-20T01:57:29.757Z,8.1
2019-04-20T01:59:10.033Z,8.1
2019-04-20T01:59:45.857Z,8.1
2019-04-20T02:00:29.581Z,7.9
2019-04-20T02:01:24.002Z,7.8
2019-04-20T02:02:18.254Z,0
2019-04-20T02:03:09.624Z,7.6
2019-04-20T02:04:15.631Z,7.7
2019-04-20T02:05:22.732Z,7.5
2019-04-20T02:06:18.156Z,7.5
2019-04-20T02:07:09.160Z,7.5
2019-04-20T02:08:20.769Z,7.5
2019-04-20T02:09:20.986Z,7.4
2019-04-20T02:10:13.077Z,7.2
2019-04-20T02:11:09.463Z,7.2
2019-04-20T02:12:22.233Z,7.1
2019-04-20T02:13:09.719Z,7.2
2019-04-20T02:14:12.016Z,7.2
2019-04-20T02:15:22.877Z,7.3
2019-04-20T02:16:26.330Z,7.3
2019-04-20T02:17:35.119Z,7.2
2019-04-20T02:18:42.010Z,7.3
2019-04-20T02:19:41.203Z,7.3
2019-04-20T02:21:55.245Z,7.1
2019-04-20T02:22:41.989Z,7.1
2019-04-20T02:23:40.607Z,7
2019-04-20T02:24:12.327Z,6.9
2019-04-20T02:25:04.000Z,6.8
2019-04-20T02:26:03.141Z,6.8
2019-04-20T02:27:04.294Z,6.7
2019-04-20T02:30:29.628Z,6.6
2019-04-20T02:31:22.786Z,6.6
2019-04-20T02:32:44.984Z,6.6
2019-04-20T02:37:35.572Z,6.6
2019-04-20T02:39:37.321Z,6.6
2019-04-20T02:40:25.045Z,6.6
2019-04-20T02:40:38.528Z,6.5
2019-04-20T02:42:33.733Z,6.6
2019-04-20T02:43:46.294Z,6.7
2019-04-20T02:46:05.776Z,6.6
2019-04-20T02:46:40.617Z,6.7
2019-04-20T02:50:42.935Z,6.6
2019-04-20T02:51:12.296Z,6.6
2019-04-20T02:53:29.526Z,6.6
2019-04-20T02:55:00.136Z,6.5
2019-04-20T02:56:10.802Z,6.5
2019-04-20T02:56:31.461Z,6.5
2019-04-20T03:00:05.170Z,6.3
2019-04-20T03:01:14.530Z,6.3
2019-04-20T03:01:58.896Z,6.3
2019-04-20T03:02:42.333Z,6.2
2019-04-20T03:03:34.407Z,6.2
2019-04-20T03:04:28.845Z,6.2
2019-04-20T03:05:41.104Z,6.1
2019-04-20T03:06:39.434Z,6.1
2019-04-20T03:09:02.269Z,6.2
2019-04-20T03:10:05.360Z,6.1
2019-04-20T03:13:07.785Z,6.2
2019-04-20T03:14:09.097Z,6.1
2019-04-20T03:14:51.253Z,6.2
2019-04-20T03:16:10.590Z,6.1
2019-04-20T03:16:54.691Z,6.1
2019-04-20T03:17:26.706Z,6
2019-04-20T03:18:58.190Z,6
2019-04-20T03:19:44.226Z,6
2019-04-20T03:21:05.243Z,6
2019-04-20T03:22:13.342Z,6
2019-04-20T03:23:49.810Z,6
2019-04-20T03:24:11.539Z,6
2019-04-20T03:25:22.089Z,5.9
2019-04-20T03:26:59.290Z,5.8
2019-04-20T03:27:49.231Z,5.8
2019-04-20T03:28:56.512Z,5.8
2019-04-20T03:29:51.871Z,5.8
2019-04-20T03:33:01.951Z,5.9
2019-04-20T03:34:37.375Z,5.9
2019-04-20T03:35:11.855Z,6
2019-04-20T03:35:40.200Z,6.1
2019-04-20T03:36:11.500Z,6.1
2019-04-20T03:37:30.432Z,6.3
2019-04-20T03:37:52.329Z,6.4
2019-04-20T03:38:53.119Z,6.1
2019-04-20T03:39:56.574Z,6.2
2019-04-20T03:40:48.196Z,6.1
2019-04-20T03:41:32.922Z,6.1
2019-04-20T03:42:09.237Z,6.1
2019-04-20T03:43:03.976Z,6.1
2019-04-20T03:44:19.549Z,5.9
2019-04-20T03:45:17.514Z,5.8
2019-04-20T03:46:16.313Z,5.8
2019-04-20T03:48:35.733Z,5.8
2019-04-20T03:50:04.467Z,5.6
2019-04-20T03:51:01.934Z,5.5
2019-04-20T03:52:13.009Z,5.4
2019-04-20T03:53:12.631Z,5.5
2019-04-20T03:54:46.616Z,5.6
2019-04-20T03:55:56.227Z,5.6
2019-04-20T03:57:12.148Z,5.6
2019-04-20T03:58:23.617Z,5.7
2019-04-20T03:58:54.551Z,5.7
2019-04-20T04:00:00.092Z,5.6
2019-04-20T04:00:49.645Z,5.6
2019-04-20T04:02:37.330Z,5.5
2019-04-20T04:03:28.856Z,5.5
2019-04-20T04:04:09.074Z,5.5
2019-04-20T04:04:49.101Z,5.5
2019-04-20T04:05:50.423Z,5.5
2019-04-20T04:06:33.931Z,5.5
2019-04-20T04:07:32.191Z,5.4
2019-04-20T04:08:30.262Z,5.4
2019-04-20T04:09:36.941Z,5.4
2019-04-20T04:10:47.531Z,5.6
2019-04-20T04:11:48.167Z,5.6
2019-04-20T04:12:30.312Z,5.6
2019-04-20T04:13:03.193Z,5.5
2019-04-20T04:14:05.159Z,5.4
2019-04-20T04:15:04.319Z,5.4
2019-04-20T04:16:15.381Z,5.4
2019-04-20T04:17:07.329Z,5.3
2019-04-20T04:18:24.080Z,5.3
2019-04-20T04:19:19.631Z,5.4
2019-04-20T04:20:18.047Z,5.5
2019-04-20T04:21:24.498Z,5.5
2019-04-20T04:22:48.860Z,5.6
2019-04-20T04:23:54.136Z,5.6
2019-04-20T04:24:39.288Z,5.6
2019-04-20T04:25:37.367Z,5.6
2019-04-20T04:26:54.723Z,5.6
2019-04-20T04:27:47.859Z,5.6
2019-04-20T04:28:53.102Z,5.7
2019-04-20T04:30:01.585Z,5.7
2019-04-20T04:30:54.358Z,5.7
2019-04-20T04:31:55.196Z,5.6
2019-04-20T04:33:51.535Z,5.6
2019-04-20T04:34:11.885Z,5.6
2019-04-20T04:34:42.876Z,5.6
2019-04-20T04:37:56.824Z,5.6
2019-04-20T04:39:20.855Z,5.7
2019-04-20T04:39:52.701Z,5.7
2019-04-20T04:41:18.013Z,5.7
2019-04-20T04:42:57.640Z,5.8
2019-04-20T04:44:39.838Z,5.8
2019-04-20T04:45:13.914Z,5.8
2019-04-20T04:46:04.102Z,5.8
2019-04-20T04:47:11.864Z,5.8
2019-04-20T04:48:22.041Z,5.8
2019-04-20T04:49:28.308Z,5.9
2019-04-20T04:50:19.626Z,5.9
2019-04-20T04:51:26.033Z,5.9
2019-04-20T04:52:17.878Z,5.9
2019-04-20T04:53:39.285Z,5.9
2019-04-20T04:54:27.818Z,5.9
2019-04-20T04:55:36.910Z,5.9
2019-04-20T04:56:18.813Z,5.9
2019-04-20T04:57:03.672Z,5.9
2019-04-20T04:58:04.508Z,5.9
2019-04-20T04:59:02.912Z,6
2019-04-20T05:00:03.786Z,6
2019-04-20T05:01:10.586Z,6.1
2019-04-20T05:02:03.405Z,6.2
2019-04-20T05:05:03.844Z,6.3
2019-04-20T05:06:47.909Z,6.4
2019-04-20T05:07:51.253Z,6.4
2019-04-20T05:08:34.351Z,6.4
2019-04-20T05:09:15.279Z,6.5
2019-04-20T05:10:03.697Z,6.6
2019-04-20T05:11:03.247Z,6.6
2019-04-20T05:12:21.764Z,6.6
2019-04-20T05:13:05.071Z,6.7
2019-04-20T05:14:21.565Z,6.9
2019-04-20T05:15:32.048Z,6.9
2019-04-20T05:16:44.917Z,6.9
2019-04-20T05:17:43.230Z,7
2019-04-20T05:19:01.837Z,7.1
2019-04-20T05:19:52.480Z,7.2
2019-04-20T05:20:52.879Z,7.2
2019-04-20T05:22:09.127Z,7.3
2019-04-20T05:23:03.676Z,7.3
2019-04-20T05:23:44.275Z,7.5
2019-04-20T05:26:55.291Z,8
2019-04-20T05:28:00.503Z,8.1
2019-04-20T05:28:42.777Z,8.3
2019-04-20T05:29:23.763Z,8.8
2019-04-20T05:30:03.854Z,9.1
2019-04-20T05:31:11.412Z,9.2
2019-04-20T05:32:20.929Z,9.4
2019-04-20T05:33:34.019Z,9.6
2019-04-20T05:35:03.967Z,9.6
2019-04-20T05:35:42.367Z,9.6
2019-04-20T05:37:00.137Z,9.6
2019-04-20T05:38:06.244Z,9.4
2019-04-20T05:39:57.328Z,9.6
2019-04-20T05:41:01.501Z,9.6
2019-04-20T05:43:05.620Z,9.6
2019-04-20T05:43:59.042Z,9.7
2019-04-20T05:44:55.485Z,9.9
2019-04-20T05:45:49.835Z,10.2
2019-04-20T05:47:10.704Z,10.4
2019-04-20T05:47:58.185Z,10.4
2019-04-20T05:48:56.008Z,10.7
2019-04-20T05:49:56.784Z,11.4
2019-04-20T05:51:01.384Z,12.3
2019-04-20T05:53:07.081Z,12.8
2019-04-20T05:54:02.032Z,12.8
2019-04-20T05:54:56.021Z,13.6
2019-04-20T05:55:54.077Z,14.3
2019-04-20T05:57:14.235Z,14.4
2019-04-20T06:00:01.467Z,16
2019-04-20T06:02:15.506Z,15.2
2019-04-20T06:03:05.384Z,14.9
2019-04-20T06:05:27.335Z,14.6
2019-04-20T06:08:11.077Z,13.4
2019-04-20T06:09:33.331Z,13.4
2019-04-20T06:11:00.265Z,13.3
2019-04-20T06:12:19.628Z,13.4
2019-04-20T06:13:06.154Z,13.4
2019-04-20T06:13:32.263Z,13.6
2019-04-20T06:16:00.497Z,13.9
2019-04-20T06:17:08.656Z,13.9
2019-04-20T06:18:06.111Z,14.4
2019-04-20T06:18:45.026Z,15.1
2019-04-20T06:20:19.214Z,15.8
2019-04-20T06:22:30.683Z,16.7
2019-04-20T06:22:48.210Z,16.5
2019-04-20T06:24:16.599Z,16.3
2019-04-20T06:27:20.924Z,15.7
2019-04-20T06:28:12.269Z,15.4
2019-04-20T06:28:49.791Z,15.4
2019-04-20T06:30:00.273Z,15.3
2019-04-20T06:30:46.769Z,16
2019-04-20T06:32:59.087Z,17.3
2019-04-20T06:35:01.264Z,16.9
2019-04-20T06:35:30.144Z,18
2019-04-20T06:36:46.026Z,18.3
2019-04-20T06:37:36.044Z,18.6
2019-04-20T06:38:00.255Z,17.9
2019-04-20T06:39:19.826Z,16.8
2019-04-20T06:42:35.596Z,15.4
2019-04-20T06:42:47.959Z,15.7
2019-04-20T06:44:14.245Z,15.3
2019-04-20T06:45:03.822Z,15.1
2019-04-20T06:46:09.424Z,15.1
2019-04-20T06:47:14.193Z,15.1
2019-04-20T06:47:56.931Z,15.2
2019-04-20T06:49:28.749Z,15.1
2019-04-20T06:49:50.248Z,15.1
2019-04-20T06:50:53.633Z,15.1
2019-04-20T06:52:04.323Z,14.9
2019-04-20T06:53:59.339Z,15.2
2019-04-20T06:54:53.584Z,15.6
2019-04-20T06:56:05.196Z,15.6
2019-04-20T06:57:09.727Z,16.3
2019-04-20T06:59:19.472Z,15.6
2019-04-20T07:00:11.245Z,16.1
2019-04-20T07:00:46.253Z,16.3
2019-04-20T07:02:58.806Z,17.2
2019-04-20T07:04:47.281Z,17.3
2019-04-20T07:05:22.002Z,17.1
2019-04-20T07:06:20.688Z,17.9
2019-04-20T07:07:29.203Z,18.1
2019-04-20T07:07:47.303Z,17.1
2019-04-20T07:09:21.479Z,16.4
2019-04-20T07:11:23.102Z,15.9
2019-04-20T07:11:50.221Z,16.3
2019-04-20T07:12:49.194Z,15.9
2019-04-20T07:13:41.115Z,15.8
2019-04-20T07:15:56.507Z,16
2019-04-20T07:16:51.032Z,16
2019-04-20T07:19:55.269Z,16.1
2019-04-20T07:21:11.543Z,16.1
2019-04-20T07:22:33.367Z,15.9
2019-04-20T07:24:11.596Z,16.2
2019-04-20T07:27:05.985Z,16.2
2019-04-20T07:28:58.659Z,16.7
2019-04-20T07:31:06.585Z,16.4
2019-04-20T07:31:48.337Z,16.4
2019-04-20T07:32:57.620Z,16.4
2019-04-20T07:33:46.179Z,16.4
2019-04-20T07:34:55.455Z,16.9
2019-04-20T07:36:00.906Z,16.8
2019-04-20T07:37:09.665Z,16.8
2019-04-20T07:39:06.951Z,16.7
2019-04-20T07:39:58.660Z,16.9
2019-04-20T07:42:28.296Z,17
2019-04-20T07:42:58.634Z,17.1
2019-04-20T07:44:09.713Z,17.1
2019-04-20T07:45:20.960Z,17.4
2019-04-20T07:45:59.984Z,17.1
2019-04-20T07:47:21.634Z,16.9
2019-04-20T07:48:01.215Z,17.1
2019-04-20T07:50:01.015Z,17.4
2019-04-20T07:50:44.418Z,17.1
2019-04-20T07:51:28.168Z,16.9
2019-04-20T07:52:04.154Z,16.8
2019-04-20T07:53:51.831Z,16.9
2019-04-20T07:55:43.760Z,16.8
2019-04-20T07:56:16.162Z,17.3
2019-04-20T07:56:53.548Z,17.4
2019-04-20T07:57:53.570Z,17.4
2019-04-20T07:58:35.631Z,17.3
2019-04-20T07:59:37.182Z,17.4
2019-04-20T08:02:15.584Z,17.3
2019-04-20T08:04:07.577Z,17.5
2019-04-20T08:04:46.958Z,17.6
2019-04-20T08:05:39.074Z,17.8
2019-04-20T08:06:25.813Z,17.8
2019-04-20T08:07:14.065Z,17.7
2019-04-20T08:09:02.263Z,17.6
2019-04-20T08:09:40.624Z,17.9
2019-04-20T08:10:37.916Z,18.5
2019-04-20T08:11:48.576Z,18.5
2019-04-20T08:14:23.875Z,18.1
2019-04-20T08:17:44.119Z,17.6
2019-04-20T08:18:13.433Z,17.7
2019-04-20T08:18:58.387Z,17.7
2019-04-20T08:20:02.567Z,17.6
2019-04-20T08:20:52.228Z,17.8
2019-04-20T08:21:50.893Z,17.9
2019-04-20T08:23:04.512Z,17.8
2019-04-20T08:23:48.686Z,18
2019-04-20T08:25:01.074Z,18.1
2019-04-20T08:26:26.835Z,18.3
2019-04-20T08:27:14.184Z,18.3
2019-04-20T08:28:24.883Z,18.4
2019-04-20T08:29:44.940Z,18.5
2019-04-20T08:30:41.140Z,18.6
2019-04-20T08:31:43.379Z,18.4
2019-04-20T08:32:53.779Z,18.3
2019-04-20T08:34:01.380Z,18.4
2019-04-20T08:35:13.711Z,18.7
2019-04-20T08:36:10.580Z,18.8
2019-04-20T08:37:00.756Z,18.8
2019-04-20T08:39:56.936Z,18.3
2019-04-20T08:40:19.299Z,18.4
2019-04-20T08:40:53.093Z,18.7
2019-04-20T08:42:00.072Z,18.7
2019-04-20T08:42:55.902Z,18.6
2019-04-20T08:44:53.553Z,18.3
2019-04-20T08:44:59.758Z,18.4
2019-04-20T08:47:09.810Z,18.6
2019-04-20T08:49:01.310Z,18.7
2019-04-20T08:49:55.209Z,18.8
2019-04-20T08:50:57.035Z,18.6
2019-04-20T08:53:35.915Z,18.6
2019-04-20T08:54:02.083Z,18.6
2019-04-20T08:54:47.682Z,18.9
2019-04-20T08:55:37.055Z,18.8
2019-04-20T08:56:35.896Z,19.1
2019-04-20T08:57:05.284Z,19.1
2019-04-20T08:58:04.626Z,18.8
2019-04-20T08:59:04.065Z,19.3
2019-04-20T09:00:08.873Z,19.3
2019-04-20T09:01:18.310Z,19.2
2019-04-20T09:02:16.667Z,19.7
2019-04-20T09:03:27.250Z,19.6
2019-04-20T09:04:26.881Z,19.6
2019-04-20T09:05:34.488Z,19.6
2019-04-20T09:06:48.879Z,19.5
2019-04-20T09:07:24.442Z,19.7
2019-04-20T09:08:29.625Z,20
2019-04-20T09:11:09.568Z,19.7
2019-04-20T09:12:00.604Z,19.6
2019-04-20T09:13:33.881Z,19.3
2019-04-20T09:14:10.256Z,19.4
2019-04-20T09:15:03.986Z,19.8
2019-04-20T09:16:04.390Z,20.1
2019-04-20T09:17:23.994Z,19.9
2019-04-20T09:18:33.073Z,19.9
2019-04-20T09:19:25.968Z,19.6
2019-04-20T09:20:31.602Z,20
2019-04-20T09:21:28.441Z,20.2
2019-04-20T09:22:45.403Z,20.2
2019-04-20T09:23:55.926Z,20.6
2019-04-20T09:25:07.003Z,20.6
2019-04-20T09:26:36.926Z,20.3
2019-04-20T09:26:47.322Z,20.7
2019-04-20T09:27:40.441Z,20.6
2019-04-20T09:28:35.114Z,20.5
2019-04-20T09:29:42.440Z,20.3
2019-04-20T09:30:50.380Z,20.6
2019-04-20T09:31:56.957Z,20.6
2019-04-20T09:34:05.812Z,19.9
2019-04-20T09:34:52.977Z,19.9
2019-04-20T09:36:01.874Z,20.4
2019-04-20T09:36:37.370Z,21.1
2019-04-20T09:37:59.491Z,20.9
2019-04-20T09:38:52.479Z,20.1
2019-04-20T09:39:30.230Z,20.1
2019-04-20T09:41:59.556Z,20.4
2019-04-20T09:42:03.734Z,20.2
2019-04-20T09:43:04.700Z,20.2
2019-04-20T09:44:04.765Z,20.5
2019-04-20T09:45:10.082Z,20.4
2019-04-20T09:46:10.198Z,20.3
2019-04-20T09:47:10.390Z,20.2
2019-04-20T09:48:23.888Z,20.7
2019-04-20T09:49:35.200Z,20.5
2019-04-20T09:51:43.490Z,20.1
2019-04-20T09:53:42.846Z,20.4
2019-04-20T09:54:54.723Z,20.4
2019-04-20T09:55:47.243Z,20.6
2019-04-20T09:58:47.104Z,20.5
2019-04-20T09:59:53.520Z,20.6
2019-04-20T10:00:41.811Z,21
2019-04-20T10:01:34.829Z,21.3
2019-04-20T10:02:23.311Z,21.2
2019-04-20T10:03:02.924Z,21.6
2019-04-20T10:04:03.601Z,21.6
2019-04-20T10:05:02.743Z,21
2019-04-20T10:06:03.573Z,21.1
2019-04-20T10:07:17.715Z,21.4
2019-04-20T10:08:11.756Z,21.7
2019-04-20T10:09:05.240Z,21.8
2019-04-20T10:10:33.819Z,22.1
2019-04-20T10:11:03.743Z,22.2
2019-04-20T10:12:03.946Z,21.4
2019-04-20T10:13:07.473Z,21.6
2019-04-20T10:14:04.113Z,21.6
2019-04-20T10:15:22.735Z,21.6
2019-04-20T10:16:03.972Z,21.1
2019-04-20T10:17:03.650Z,20.6
2019-04-20T10:18:03.901Z,20.5
2019-04-20T10:19:05.026Z,20.4
2019-04-20T10:20:28.150Z,20.6
2019-04-20T10:21:03.074Z,20.6
2019-04-20T10:22:04.839Z,20.8
2019-04-20T10:23:04.741Z,20.4
2019-04-20T10:24:03.521Z,20.6
2019-04-20T10:25:04.745Z,20.8
2019-04-20T10:26:03.028Z,21.3
2019-04-20T10:27:03.221Z,21
2019-04-20T10:28:03.503Z,20.8
2019-04-20T10:29:03.655Z,20.8
2019-04-20T10:30:06.360Z,21
2019-04-20T10:31:04.463Z,21
2019-04-20T10:32:15.957Z,21
2019-04-20T10:33:03.806Z,21
2019-04-20T10:34:04.050Z,21
2019-04-20T10:35:04.649Z,21.4
2019-04-20T10:36:03.682Z,21.3
2019-04-20T10:37:04.027Z,21.3
2019-04-20T10:38:03.408Z,21.5
2019-04-20T10:39:04.573Z,21.4
2019-04-20T10:40:03.073Z,21.6
2019-04-20T10:41:29.370Z,21.6
2019-04-20T10:42:06.052Z,21.3
2019-04-20T10:43:06.207Z,21.3
2019-04-20T10:44:03.005Z,22.3
2019-04-20T10:45:05.933Z,21.9
2019-04-20T10:46:04.817Z,21.3
2019-04-20T10:47:03.146Z,21.3
2019-04-20T10:48:03.556Z,21.5
2019-04-20T10:49:07.668Z,21.3
2019-04-20T10:50:05.106Z,21.6
2019-04-20T10:51:03.327Z,21.4
2019-04-20T10:52:03.742Z,21.4
2019-04-20T10:53:03.809Z,21.4
2019-04-20T10:54:04.692Z,21.8
2019-04-20T10:55:03.898Z,21.7
2019-04-20T10:56:03.647Z,22.1
2019-04-20T10:57:03.643Z,21.7
2019-04-20T10:58:03.924Z,21.6
2019-04-20T10:59:03.652Z,22
2019-04-20T11:00:03.933Z,21.9
2019-04-20T11:01:04.084Z,22.2
2019-04-20T11:02:03.743Z,22.7
2019-04-20T11:03:03.947Z,22.6
2019-04-20T11:04:03.199Z,22.1
2019-04-20T11:05:04.586Z,22.3
2019-04-20T11:06:04.988Z,22.4
2019-04-20T11:07:03.300Z,22.4
2019-04-20T11:08:04.461Z,22.8
2019-04-20T11:09:02.683Z,22.8
2019-04-20T11:10:25.652Z,22.3
2019-04-20T11:11:25.027Z,21.8
2019-04-20T11:12:04.323Z,22.2
2019-04-20T11:13:03.440Z,22.3
2019-04-20T11:14:24.562Z,21.9
2019-04-20T11:15:03.417Z,21.9
2019-04-20T11:16:04.438Z,21.6
2019-04-20T11:17:04.553Z,21.8
2019-04-20T11:18:03.847Z,21.6
2019-04-20T11:19:03.456Z,22
2019-04-20T11:20:03.521Z,22.2
2019-04-20T11:21:03.762Z,22.5
2019-04-20T11:22:04.338Z,22.5
2019-04-20T11:23:04.495Z,22.1
2019-04-20T11:24:02.951Z,22.3
2019-04-20T11:25:04.441Z,22.6
2019-04-20T11:26:04.499Z,22.3
2019-04-20T11:27:02.679Z,21.8
2019-04-20T11:28:04.150Z,22.3
2019-04-20T11:29:04.388Z,22
2019-04-20T11:30:04.526Z,22.2
2019-04-20T11:31:04.183Z,22.6
2019-04-20T11:32:04.923Z,22.8
2019-04-20T11:33:04.507Z,22.4
2019-04-20T11:34:04.128Z,22.5
2019-04-20T11:35:27.565Z,22.2
2019-04-20T11:36:03.472Z,22.2
2019-04-20T11:37:03.552Z,22.6
2019-04-20T11:38:05.088Z,21.9
2019-04-20T11:39:05.037Z,21.9
2019-04-20T11:40:03.683Z,22.2
2019-04-20T11:41:25.466Z,22.4
2019-04-20T11:42:03.792Z,22.8
2019-04-20T11:43:04.062Z,22.8
2019-04-20T11:44:03.472Z,22.9
2019-04-20T11:45:04.771Z,22.8
2019-04-20T11:46:03.154Z,22.8
2019-04-20T11:47:03.574Z,22.6
2019-04-20T11:48:03.605Z,22.1
2019-04-20T11:49:03.793Z,22.2
2019-04-20T11:50:03.935Z,22.3
2019-04-20T11:51:03.711Z,22.3
2019-04-20T11:52:03.701Z,22.6
2019-04-20T11:53:03.707Z,22.5
2019-04-20T11:54:04.400Z,22.7
2019-04-20T11:55:04.544Z,22.8
2019-04-20T11:56:21.123Z,22.9
2019-04-20T11:57:03.900Z,22.8
2019-04-20T11:58:03.914Z,22.4
2019-04-20T11:59:03.183Z,22.3
2019-04-20T12:00:03.829Z,22.2
2019-04-20T12:01:19.045Z,22.9
2019-04-20T12:02:09.388Z,22.9
2019-04-20T12:03:29.678Z,22.9
2019-04-20T12:04:40.836Z,22.1
2019-04-20T12:05:35.096Z,22.4
2019-04-20T12:06:08.798Z,22.2
2019-04-20T12:07:03.112Z,22.4
2019-04-20T12:08:03.250Z,22.6
2019-04-20T12:09:03.255Z,22.8
2019-04-20T12:10:18.769Z,22.8
2019-04-20T12:11:40.252Z,23.1
2019-04-20T12:12:34.850Z,22.7
2019-04-20T12:13:03.996Z,22.7
2019-04-20T12:14:03.099Z,22.4
2019-04-20T12:15:04.563Z,22.4
2019-04-20T12:16:03.676Z,22.6
2019-04-20T12:17:03.932Z,22.8
2019-04-20T12:18:02.909Z,22.4
2019-04-20T12:19:04.474Z,22.4
2019-04-20T12:20:04.077Z,22.6
2019-04-20T12:21:03.154Z,22.9
2019-04-20T12:22:03.711Z,23.1
2019-04-20T12:23:04.464Z,22.6
2019-04-20T12:24:04.593Z,22.4
2019-04-20T12:25:03.551Z,22.4
2019-04-20T12:26:04.940Z,22.4
2019-04-20T12:27:04.998Z,22.8
2019-04-20T12:28:05.475Z,22.6
2019-04-20T12:29:03.694Z,22.5
2019-04-20T12:30:03.900Z,22.5
2019-04-20T12:31:20.859Z,22.5
2019-04-20T12:32:09.038Z,22.8
2019-04-20T12:33:05.906Z,22.6
2019-04-20T12:34:04.642Z,22.6
2019-04-20T12:35:04.477Z,22.9
2019-04-20T12:36:03.308Z,22.9
2019-04-20T12:37:03.234Z,23
2019-04-20T12:38:03.362Z,23.1
2019-04-20T12:39:03.563Z,23.1
2019-04-20T12:40:03.328Z,23.1
2019-04-20T12:41:09.532Z,22.6
2019-04-20T12:42:11.110Z,22.7
2019-04-20T12:43:04.880Z,22.7
2019-04-20T12:44:04.033Z,22.7
2019-04-20T12:45:04.064Z,22.6
2019-04-20T12:46:03.308Z,22.8
2019-04-20T12:47:03.804Z,23
2019-04-20T12:48:04.090Z,23.1
2019-04-20T12:49:03.153Z,22.8
2019-04-20T12:50:03.637Z,22.5
2019-04-20T12:51:04.034Z,22.5
2019-04-20T12:52:08.041Z,22.8
2019-04-20T12:53:04.594Z,22.8
2019-04-20T12:54:02.776Z,22.4
2019-04-20T12:55:06.556Z,22.4
2019-04-20T12:56:02.754Z,22.6
2019-04-20T12:57:04.774Z,22.8
2019-04-20T12:58:05.009Z,22.8
2019-04-20T12:59:03.602Z,23.1
2019-04-20T13:00:03.741Z,23.1
2019-04-20T13:01:04.638Z,23.3
2019-04-20T13:02:03.531Z,22.8
2019-04-20T13:03:05.321Z,22.9
2019-04-20T13:04:09.386Z,23.3
2019-04-20T13:05:03.777Z,23.1
2019-04-20T13:06:03.943Z,23.1
2019-04-20T13:07:03.954Z,23.1
2019-04-20T13:08:07.501Z,23.3
2019-04-20T13:09:05.856Z,23.4
2019-04-20T13:10:05.967Z,23.4
2019-04-20T13:11:04.754Z,22.9
2019-04-20T13:12:12.208Z,22.8
2019-04-20T13:13:04.746Z,22.9
2019-04-20T13:14:04.325Z,22.9
2019-04-20T13:15:04.598Z,22.9
2019-04-20T13:16:04.671Z,22.6
2019-04-20T13:17:04.392Z,22.6
2019-04-20T13:18:03.460Z,22.5
2019-04-20T13:19:03.809Z,22.7
2019-04-20T13:20:03.900Z,22.8
2019-04-20T13:21:05.212Z,22.5
2019-04-20T13:22:03.661Z,22.6
2019-04-20T13:23:07.896Z,22.7
2019-04-20T13:24:05.202Z,22.6
2019-04-20T13:25:03.382Z,22.3
2019-04-20T13:26:10.158Z,22.1
2019-04-20T13:27:03.116Z,22
2019-04-20T13:28:03.513Z,21.9
2019-04-20T13:29:04.856Z,22.1
2019-04-20T13:30:05.029Z,22.8
2019-04-20T13:31:04.122Z,22.7
2019-04-20T13:32:02.980Z,22.8
2019-04-20T13:33:04.115Z,22.7
2019-04-20T13:34:03.841Z,22.7
2019-04-20T13:35:04.660Z,22.8
2019-04-20T13:36:04.241Z,22.9
2019-04-20T13:37:04.404Z,22.8
2019-04-20T13:38:04.716Z,22.8
2019-04-20T13:39:04.025Z,22.8
2019-04-20T13:40:05.057Z,22.7
2019-04-20T13:41:04.241Z,22.8
2019-04-20T13:42:24.441Z,22.7
2019-04-20T13:43:03.709Z,23
2019-04-20T13:44:06.641Z,22.6
2019-04-20T13:45:04.514Z,22.6
2019-04-20T13:46:05.063Z,22.9
2019-04-20T13:47:05.238Z,23.2
2019-04-20T13:48:04.612Z,22.9
2019-04-20T13:49:05.065Z,22.8
2019-04-20T13:50:03.500Z,22.8
2019-04-20T13:51:05.566Z,22.6
2019-04-20T13:52:04.765Z,22.6
2019-04-20T13:53:03.602Z,22.8
2019-04-20T13:54:17.938Z,23
2019-04-20T13:55:03.434Z,23
2019-04-20T13:56:03.892Z,23
2019-04-20T13:57:04.020Z,23.2
2019-04-20T13:58:04.816Z,23.4
2019-04-20T13:59:03.990Z,23.4
2019-04-20T14:00:04.329Z,22.9
2019-04-20T14:01:03.288Z,23
2019-04-20T14:02:04.610Z,22.8
2019-04-20T14:03:02.860Z,22.8
2019-04-20T14:04:03.266Z,22.8
2019-04-20T14:05:04.854Z,22.8
2019-04-20T14:06:04.815Z,23
2019-04-20T14:07:03.826Z,23
2019-04-20T14:08:03.276Z,23.5
2019-04-20T14:09:03.823Z,23.5
2019-04-20T14:10:03.879Z,23.3
2019-04-20T14:11:05.325Z,23.1
2019-04-20T14:12:30.397Z,23.1
2019-04-20T14:13:19.016Z,23.1
2019-04-20T14:14:08.490Z,23.5
2019-04-20T14:15:05.142Z,23.4
2019-04-20T14:16:05.201Z,23.1
2019-04-20T14:17:03.586Z,23.2
2019-04-20T14:18:05.035Z,23.1
2019-04-20T14:19:05.273Z,23.3
2019-04-20T14:20:17.343Z,23.1
2019-04-20T14:21:03.735Z,22.7
2019-04-20T14:22:04.114Z,23
2019-04-20T14:23:03.328Z,23.1
2019-04-20T14:24:04.428Z,23.1
2019-04-20T14:25:05.158Z,22.9
2019-04-20T14:26:05.098Z,22.6
2019-04-20T14:27:03.557Z,22.9
2019-04-20T14:28:03.222Z,22.7
2019-04-20T14:29:03.449Z,22.6
2019-04-20T14:30:03.648Z,22.8
2019-04-20T14:31:03.940Z,23
2019-04-20T14:32:08.875Z,23
2019-04-20T14:33:04.844Z,23.1
2019-04-20T14:34:04.951Z,23.1
2019-04-20T14:35:03.359Z,23
2019-04-20T14:36:03.410Z,23
2019-04-20T14:37:02.969Z,23.1
2019-04-20T14:38:04.004Z,23.3
2019-04-20T14:39:02.877Z,23
2019-04-20T14:40:04.377Z,23.2
2019-04-20T14:41:04.469Z,23
2019-04-20T14:42:02.795Z,22.9
2019-04-20T14:43:03.637Z,23
2019-04-20T14:44:03.798Z,23.3
2019-04-20T14:45:03.105Z,23.2
2019-04-20T14:46:03.367Z,22.9
2019-04-20T14:47:03.786Z,22.8
2019-04-20T14:48:03.886Z,22.8
2019-04-20T14:49:03.056Z,23.3
2019-04-20T14:50:03.519Z,23.3
2019-04-20T14:51:03.690Z,23.3
2019-04-20T14:52:04.374Z,23.4
2019-04-20T14:53:03.255Z,23.4
2019-04-20T14:54:03.490Z,23.5
2019-04-20T14:55:03.915Z,23.4
2019-04-20T14:56:02.958Z,23.5